Antiville, Indiana
Current Conditions -  °F | °C
As of 12:53 AM on Friday 31 Oct 2014 (Local Time) from KMIE Reporting Station
Overcast Overcast  
Wind Chill: 46°   Ceiling: 7000
Heat Index: 46°   Visibility: 10mi
Dew Point: 35°   Wind: 3mph
Humidity: 66%   Direction: 180°S
Pressure: 30.03"   Gusts: NA
Location:  40.4312°N, 85.0058°W
Report Text: KMIE 310453Z AUTO 18003KT 10SM SCT045 BKN070 OVC080 08/02 A3003 RMK AO2 SLP169 T00780017 401110050
Loading
Personal Weather Stations






























Interactive Weather Map New forecast layout! Learn more

10-Day Weather Forecast

Advertisements
Track Severe Weather on mobile